Latest Weather Observations for Lajamanu

IDD60801

Issued at 9:05 am CST Friday 1 August 2014 (issued every 30 minutes, with the page automatically refreshed every 10 minutes)

About weather observations | Map of weather stations | Latest weather observations for NT | Other Formats
Station Details ID: 014829 Name: LAJAMANU AIRPORT Lat: -18.33 Lon: 130.64 Height: 315.6 m
Data from the previous 72 hours. | See also: Recent months at Lajamanu
Date/Time
CST
Temp
°C
App
Temp
°C
Dew
Point
Rel
Hum
%
Delta-T
°C
Wind Press
QNH
hPa
Press
MSL
hPa
Rain
since 9 am
mm
Dir
 
Spd
km/h
Gust
km/h
Spd
kts
Gust
kts
01/09:00am 19.2 16.2 4.2 37 7.3 S 9 11 5 6 1018.6 1017.9 0.0
01/08:30am 18.1 16.3 3.2 37 7.0 SSE 2 7 1 4 1018.0 1017.3 0.0
01/08:00am 16.5 15.2 3.9 43 6.0 CALM 0 0 0 0 1018.0 - 0.0
01/07:30am 14.9 12.4 4.0 48 5.1 S 6 7 3 4 1017.9 1017.2 0.0
01/07:00am 14.3 11.5 2.9 46 5.2 S 7 9 4 5 1017.5 - 0.0
01/06:30am 14.4 12.9 2.9 46 5.2 CALM 0 0 0 0 1017.2 1016.4 0.0
01/06:00am 15.2 13.6 2.4 42 5.8 SSW 0 4 0 2 1017.2 1016.4 0.0
01/05:30am 14.6 11.7 2.5 44 5.5 SSW 7 7 4 4 1017.1 1016.3 0.0
01/05:00am 13.7 10.9 2.9 48 4.9 SSW 7 9 4 5 1016.9 - 0.0
01/04:30am 12.8 10.1 2.4 49 4.6 SW 6 7 3 4 1016.8 1016.0 0.0
01/04:00am 13.2 10.8 2.4 48 4.8 S 4 6 2 3 1016.5 - 0.0
01/03:30am 13.1 10.4 2.4 48 4.8 S 6 9 3 5 1016.5 1015.7 0.0
01/03:00am 13.3 10.5 2.2 47 4.9 S 6 7 3 4 1016.6 1015.8 0.0
01/02:30am 14.4 11.7 2.9 46 5.2 S 6 9 3 5 1016.7 1015.9 0.0
01/02:00am 13.3 10.6 2.8 49 4.7 SSW 6 13 3 7 1016.8 - 0.0
01/01:30am 13.5 11.9 2.4 47 5.0 CALM 0 0 0 0 1016.9 1016.1 0.0
01/01:00am 13.5 10.8 2.4 47 5.0 S 6 7 3 4 1017.1 - 0.0
01/12:30am 14.0 11.6 2.0 44 5.3 S 4 6 2 3 1017.2 1016.4 0.0
01/12:00am 14.9 12.8 1.4 40 6.0 SE 2 6 1 3 1017.2 1016.4 0.0
 
Date/Time
CST
Temp
°C
App
Temp
°C
Dew
Point
Rel
Hum
%
Delta-T
°C
Wind Press
QNH
hPa
Press
MSL
hPa
Rain
since 9 am
mm
Dir
 
Spd
km/h
Gust
km/h
Spd
kts
Gust
kts
31/11:30pm 15.7 12.8 1.4 38 6.4 SSE 6 7 3 4 1017.2 1016.4 0.0
31/11:00pm 16.5 13.5 0.6 34 7.0 SSE 6 7 3 4 1017.2 - 0.0
31/10:30pm 17.9 14.7 1.0 32 7.6 SSE 7 9 4 5 1017.3 1016.5 0.0
31/10:00pm 19.3 16.3 1.8 31 8.1 SSE 7 9 4 5 1017.1 - 0.0
31/09:30pm 20.2 16.8 2.1 30 8.5 SSE 9 11 5 6 1017.0 1016.2 0.0
31/09:00pm 20.2 16.8 2.1 30 8.5 SE 9 11 5 6 1016.9 1016.1 0.0
31/08:30pm 20.1 16.8 2.5 31 8.3 SE 9 11 5 6 1016.6 1015.8 0.0
31/08:00pm 20.5 17.3 2.8 31 8.4 SE 9 11 5 6 1016.3 - 0.0
31/07:30pm 19.7 16.9 2.1 31 8.2 S 6 7 3 4 1015.8 1015.1 0.0
31/07:00pm 21.6 18.6 0.8 25 9.6 ESE 6 7 3 4 1015.6 - 0.0
31/06:30pm 24.9 21.8 0.4 20 11.5 ESE 6 7 3 4 1015.4 1014.7 0.0
31/06:00pm 28.5 25.1 -0.6 15 13.8 E 7 9 4 5 1015.3 1014.6 0.0
31/05:30pm 29.5 25.9 -1.8 13 14.6 E 7 15 4 8 1015.0 1014.3 0.0
31/05:00pm 30.0 26.7 -1.4 13 14.9 ESE 6 11 3 6 1014.9 - 0.0
31/04:30pm 30.1 25.8 -1.3 13 14.9 SE 11 17 6 9 1014.9 1014.2 0.0
31/04:00pm 30.3 26.8 -1.2 13 15.0 E 7 13 4 7 1015.1 - 0.0
31/03:30pm 30.3 26.4 -1.2 13 15.0 SE 9 17 5 9 1015.4 1014.7 0.0
31/03:00pm 30.6 26.8 -0.9 13 15.1 S 9 20 5 11 1015.6 1014.9 0.0
31/02:30pm 30.3 25.9 -2.2 12 15.2 SSE 11 20 6 11 1016.2 1015.4 0.0
31/02:00pm 30.4 26.2 -1.1 13 15.0 S 11 20 6 11 1016.7 - 0.0
31/01:30pm 29.8 24.8 -1.5 13 14.7 SSE 15 20 8 11 1017.3 1016.5 0.0
31/01:00pm 29.0 23.9 -2.2 13 14.4 ESE 15 22 8 12 1017.8 - 0.0
31/12:30pm 29.4 24.4 -0.9 14 14.4 ESE 15 20 8 11 1018.2 1017.5 0.0
31/12:00pm 28.6 22.8 -1.5 14 14.0 SE 19 28 10 15 1018.6 1017.9 0.0
31/11:30am 27.9 22.0 -2.0 14 13.7 SE 19 26 10 14 1019.1 1018.4 0.0
31/11:00am 26.9 21.5 -1.0 16 13.0 ESE 17 22 9 12 1019.3 - 0.0
31/10:30am 25.3 20.5 0.0 19 11.8 SE 15 17 8 9 1019.5 1018.7 0.0
31/10:00am 24.0 20.1 1.0 22 10.9 SE 11 17 6 9 1019.7 - 0.0
31/09:30am 21.9 18.2 2.1 27 9.4 SE 11 13 6 7 1019.5 1018.7 0.0
31/09:00am 19.4 16.1 2.3 32 8.0 SSE 9 13 5 7 1019.3 1018.6 0.0
31/08:30am 16.2 13.3 2.6 40 6.2 SSE 7 9 4 5 1019.1 1018.4 0.0
31/08:00am 13.9 10.7 2.8 47 5.0 S 9 11 5 6 1019.0 - 0.0
31/07:30am 9.3 6.4 2.6 63 2.9 S 7 9 4 5 1018.9 1018.2 0.0
31/07:00am 9.2 6.5 2.5 63 2.9 S 6 7 3 4 1018.6 - 0.0
31/06:30am 9.5 7.5 2.4 61 3.1 W 2 6 1 3 1018.3 1017.6 0.0
31/06:00am 10.4 7.6 2.0 56 3.6 NNW 6 7 3 4 1018.0 1017.3 0.0
31/05:30am 10.4 7.4 2.3 57 3.5 NNW 7 9 4 5 1017.8 1017.1 0.0
31/05:00am 11.3 8.3 2.3 54 3.9 NNW 7 9 4 5 1017.7 - 0.0
31/04:30am 11.3 9.3 2.1 53 4.0 W 2 6 1 3 1017.7 1017.0 0.0
31/04:00am 10.5 8.8 1.9 55 3.7 CALM 0 0 0 0 1017.7 - 0.0
31/03:30am 11.2 8.8 2.0 53 4.0 SSW 4 6 2 3 1018.0 1017.3 0.0
31/03:00am 11.8 10.1 2.0 51 4.3 CALM 0 0 0 0 1018.0 1017.3 0.0
31/02:30am 11.1 9.0 1.6 52 4.1 S 2 7 1 4 1018.1 1017.4 0.0
31/02:00am 11.7 9.9 1.4 49 4.4 CALM 0 0 0 0 1018.2 - 0.0
31/01:30am 12.4 10.2 1.1 46 4.8 SSE 2 6 1 3 1018.3 1017.6 0.0
31/01:00am 13.2 10.3 1.2 44 5.2 S 6 7 3 4 1018.2 - 0.0
31/12:30am 13.5 10.6 1.2 43 5.3 S 6 9 3 5 1018.2 1017.5 0.0
31/12:00am 14.9 12.1 3.1 45 5.4 S 7 15 4 8 1018.1 1017.4 0.0
 
Date/Time
CST
Temp
°C
App
Temp
°C
Dew
Point
Rel
Hum
%
Delta-T
°C
Wind Press
QNH
hPa
Press
MSL
hPa
Rain
since 9 am
mm
Dir
 
Spd
km/h
Gust
km/h
Spd
kts
Gust
kts
30/11:30pm 13.9 12.3 2.5 46 5.1 CALM 0 0 0 0 1018.2 1017.5 0.0
30/11:00pm 14.3 11.6 2.9 46 5.2 SW 6 7 3 4 1018.3 - 0.0
30/10:30pm 14.7 12.4 0.5 38 6.1 E 2 7 1 4 1018.3 1017.6 0.0
30/10:00pm 16.2 12.9 -0.1 33 7.1 E 7 9 4 5 1018.4 - 0.0
30/09:30pm 17.7 14.1 0.4 31 7.7 E 9 11 5 6 1018.4 1017.7 0.0
30/09:00pm 19.1 15.5 0.7 29 8.3 E 9 11 5 6 1018.3 1017.6 0.0
30/08:30pm 18.5 15.4 1.1 31 7.9 ESE 7 7 4 4 1018.2 1017.5 0.0
30/08:00pm 20.2 17.2 0.6 27 8.9 ESE 6 7 3 4 1018.0 - 0.0
30/07:30pm 19.3 16.0 -1.2 25 8.9 ESE 6 7 3 4 1017.6 1016.8 0.0
30/07:00pm 21.2 17.9 -1.3 22 10.0 ESE 6 7 3 4 1017.2 - 0.0
30/06:30pm 24.5 21.0 -1.3 18 11.7 E 7 9 4 5 1017.0 1016.2 0.0
30/06:00pm 27.5 23.1 -2.3 14 13.6 ESE 11 15 6 8 1016.8 1016.0 0.0
30/05:30pm 28.5 23.7 -2.6 13 14.2 ESE 13 19 7 10 1016.7 1015.9 0.0
30/05:00pm 28.9 24.1 -2.3 13 14.4 ESE 13 20 7 11 1016.5 - 0.0
30/04:30pm 29.4 24.6 -2.9 12 14.8 ESE 13 20 7 11 1016.4 1015.6 0.0
30/04:00pm 29.6 24.8 -2.8 12 14.9 ESE 13 24 7 13 1016.3 - 0.0
30/03:30pm 29.7 24.3 -1.6 13 14.7 SE 17 24 9 13 1016.6 1015.8 0.0
30/03:00pm 29.2 24.0 -3.1 12 14.7 E 15 20 8 11 1016.9 1016.1 0.0
30/02:30pm 29.2 23.6 -3.1 12 14.7 ESE 17 30 9 16 1017.4 1016.6 0.0
30/02:00pm 29.1 23.5 -3.2 12 14.7 E 17 26 9 14 1017.9 - 0.0
30/01:30pm 28.4 22.5 -2.6 13 14.2 E 19 30 10 16 1018.5 1017.8 0.0
30/01:00pm 28.4 22.8 -2.6 13 14.2 ESE 17 28 9 15 1019.2 - 0.0
30/12:30pm 27.5 21.9 -3.3 13 13.8 E 17 26 9 14 1019.8 1019.0 0.0
30/12:00pm 26.9 20.8 -3.8 13 13.6 E 19 26 10 14 1020.1 1019.3 0.0
30/11:30am 26.6 20.5 -4.0 13 13.4 E 19 28 10 15 1020.6 1019.9 0.0
30/11:00am 26.1 19.8 -4.4 13 13.3 E 20 32 11 17 1021.0 - 0.0
30/10:30am 24.9 18.8 -3.5 15 12.4 ENE 19 28 10 15 1021.2 1020.5 0.0
30/10:00am 23.6 17.4 -2.8 17 11.6 ENE 20 32 11 17 1021.3 - 0.0
30/09:30am 21.9 16.6 -0.8 22 10.2 E 17 26 9 14 1021.1 1020.4 0.0
30/09:00am 19.2 14.5 1.2 30 8.2 E 15 24 8 13 1020.8 1020.1 0.0
30/08:30am 16.2 12.9 2.6 40 6.2 SE 9 13 5 7 1020.6 1019.9 0.0
30/08:00am 13.7 11.2 3.8 51 4.6 SSE 6 7 3 4 1020.4 - 0.0
30/07:30am 11.3 8.5 3.1 57 3.6 SE 7 9 4 5 1020.0 1019.2 0.0
30/07:00am 12.3 9.2 3.8 56 3.9 SE 9 11 5 6 1019.5 - 0.0
30/06:30am 10.2 7.7 3.7 64 2.9 SSE 6 7 3 4 1019.2 1018.5 0.0
30/06:00am 10.0 7.9 3.7 65 2.8 SSE 4 6 2 3 1019.0 1018.3 0.0
30/05:30am 10.3 7.7 3.3 62 3.1 S 6 7 3 4 1018.8 1018.1 0.0
30/05:00am 10.7 8.5 3.3 60 3.3 SSW 4 9 2 5 1018.7 - 0.0
30/04:30am 11.7 9.4 2.7 54 4.0 SE 4 7 2 4 1018.6 1017.9 0.0
30/04:00am 12.1 9.5 3.3 55 4.0 SSE 6 9 3 5 1018.5 - 0.0
30/03:30am 12.5 9.8 2.9 52 4.3 SSE 6 7 3 4 1018.6 1017.9 0.0
30/03:00am 13.4 10.6 3.2 50 4.6 SSE 7 9 4 5 1018.8 1018.1 0.0
30/02:30am 13.1 10.4 2.9 50 4.6 SE 6 9 3 5 1019.0 1018.3 0.0
30/02:00am 14.5 11.7 3.0 46 5.3 SE 7 7 4 4 1019.2 - 0.0
30/01:30am 14.3 11.6 2.9 46 5.2 SSE 6 7 3 4 1019.3 1018.6 0.0
30/01:00am 16.2 13.4 2.9 41 6.1 SSE 7 11 4 6 1019.5 - 0.0
30/12:30am 16.9 13.7 2.9 39 6.5 SE 9 15 5 8 1019.7 1018.9 0.0
30/12:00am 17.1 14.0 3.8 41 6.3 SE 9 11 5 6 1019.7 1018.9 0.0
 
Date/Time
CST
Temp
°C
App
Temp
°C
Dew
Point
Rel
Hum
%
Delta-T
°C
Wind Press
QNH
hPa
Press
MSL
hPa
Rain
since 9 am
mm
Dir
 
Spd
km/h
Gust
km/h
Spd
kts
Gust
kts
29/11:30pm 15.2 12.6 3.4 45 5.4 SSE 6 7 3 4 1019.8 1019.0 0.0
29/11:00pm 16.8 14.1 3.5 41 6.3 SE 7 9 4 5 1019.7 - 0.0
29/10:30pm 16.6 13.8 3.3 41 6.2 SSE 7 9 4 5 1019.8 1019.0 0.0
29/10:00pm 17.9 15.1 3.4 38 6.9 SSE 7 9 4 5 1019.7 - 0.0
29/09:30pm 18.4 15.7 3.5 37 7.1 SE 7 9 4 5 1019.5 1018.7 0.0
29/09:00pm 18.9 15.8 3.5 36 7.3 SE 9 11 5 6 1019.3 1018.6 0.0
29/08:30pm 19.7 16.6 3.8 35 7.7 SE 9 9 5 5 1019.1 1018.4 0.0
29/08:00pm 19.8 17.2 4.3 36 7.6 SE 7 9 4 5 1018.8 - 0.0
29/07:30pm 20.2 17.4 3.4 33 8.1 SSE 7 9 4 5 1018.6 1017.9 0.0
29/07:00pm 21.1 18.4 2.9 30 8.7 SSE 6 7 3 4 1018.2 - 0.0
29/06:30pm 25.2 22.3 2.6 23 11.1 SE 7 11 4 6 1017.9 1017.2 0.0
29/06:00pm 27.6 23.4 1.9 19 12.6 ESE 13 15 7 8 1017.7 1017.0 0.0
29/05:30pm 28.4 24.2 1.8 18 13.1 SE 13 17 7 9 1017.5 1016.7 0.0
29/05:00pm 29.2 25.0 1.7 17 13.7 SE 13 24 7 13 1017.2 - 0.0
29/04:30pm 29.3 24.2 0.9 16 13.9 SE 17 26 9 14 1017.1 1016.3 0.0
29/04:00pm 29.5 24.3 0.2 15 14.2 E 17 28 9 15 1017.0 - 0.0
29/03:30pm 29.6 24.8 0.2 15 14.2 ESE 15 24 8 13 1017.1 1016.3 0.0
29/03:00pm 29.8 24.1 0.4 15 14.3 SE 20 28 11 15 1017.4 1016.6 0.0
29/02:30pm 29.6 23.5 0.2 15 14.2 SE 22 30 12 16 1017.8 1017.1 0.0
29/02:00pm 29.4 24.0 1.0 16 13.9 SE 19 26 10 14 1018.3 - 0.0
29/01:30pm 29.2 23.7 0.8 16 13.8 E 19 30 10 16 1018.9 1018.2 0.0
29/01:00pm 28.7 23.0 0.4 16 13.7 E 20 28 11 15 1019.6 - 0.0
29/12:30pm 28.6 23.9 1.2 17 13.4 E 15 26 8 14 1020.0 1019.2 0.0
29/12:00pm 27.9 22.9 1.4 18 12.9 E 17 28 9 15 1020.4 1019.7 0.0
29/11:30am 26.7 21.4 1.9 20 12.1 E 19 28 10 15 1020.7 1020.0 0.0
29/11:00am 26.9 21.7 2.7 21 12.0 E 19 26 10 14 1021.0 - 0.0
29/10:30am 25.5 21.2 3.5 24 11.0 E 15 20 8 11 1021.2 1020.5 0.0
29/10:00am 24.3 19.7 3.6 26 10.3 ESE 17 22 9 12 1021.3 - 0.0
29/09:30am 22.3 18.4 3.4 29 9.2 ESE 13 17 7 9 1021.1 1020.4 0.0

Other Formats:

Comma delimited format used in spreadsheet applications
http://www.bom.gov.au/fwo/IDD60801/IDD60801.94231.axf

JavaScript Object Notation format (JSON) in row-major order
http://www.bom.gov.au/fwo/IDD60801/IDD60801.94231.json